createdAt,value
2023-05-17T00:00:41.529Z,16.85
2023-05-17T00:01:43.117Z,16.93
2023-05-17T00:02:44.751Z,17.00
2023-05-17T00:03:46.399Z,17.08
2023-05-17T00:04:48.045Z,17.16
2023-05-17T00:05:49.897Z,17.18
2023-05-17T00:06:51.769Z,17.20
2023-05-17T00:07:53.319Z,17.18
2023-05-17T00:08:54.894Z,17.14
2023-05-17T00:09:56.496Z,17.20
2023-05-17T00:10:58.266Z,17.25
2023-05-17T00:11:59.851Z,17.31
2023-05-17T00:13:01.387Z,17.28
2023-05-17T00:14:02.972Z,17.30
2023-05-17T00:15:05.498Z,17.38
2023-05-17T00:16:07.613Z,17.41
2023-05-17T00:17:09.202Z,17.44
2023-05-17T00:18:10.986Z,17.47
2023-05-17T00:19:12.813Z,17.47
2023-05-17T00:20:14.790Z,17.38
2023-05-17T00:21:16.366Z,17.30
2023-05-17T00:22:17.982Z,17.23
2023-05-17T00:23:19.595Z,17.10
2023-05-17T00:24:21.150Z,16.90
2023-05-17T00:25:22.749Z,16.78
2023-05-17T00:26:24.371Z,16.76
2023-05-17T00:27:25.937Z,16.76
2023-05-17T00:28:27.547Z,16.73
2023-05-17T00:29:29.160Z,16.73
2023-05-17T00:30:30.758Z,16.70
2023-05-17T00:31:32.389Z,16.72
2023-05-17T00:32:34.000Z,16.78
2023-05-17T00:33:35.908Z,16.75
2023-05-17T00:34:37.538Z,16.68
2023-05-17T00:35:39.171Z,16.69
2023-05-17T00:36:40.805Z,16.57
2023-05-17T00:37:47.707Z,16.44
2023-05-17T00:38:49.281Z,16.49
2023-05-17T00:39:51.004Z,16.55
2023-05-17T00:40:54.219Z,16.59
2023-05-17T00:41:55.888Z,16.54
2023-05-17T00:42:57.511Z,16.49
2023-05-17T00:43:59.202Z,16.46
2023-05-17T00:45:00.780Z,16.49
2023-05-17T00:46:02.378Z,16.47
2023-05-17T00:47:04.044Z,16.40
2023-05-17T00:48:05.900Z,16.31
2023-05-17T00:49:07.582Z,16.29
2023-05-17T00:50:09.561Z,16.26
2023-05-17T00:51:12.310Z,16.31
2023-05-17T00:52:14.114Z,16.34
2023-05-17T00:53:16.421Z,16.41
2023-05-17T00:54:18.667Z,16.45
2023-05-17T00:55:21.048Z,16.47
2023-05-17T00:56:24.019Z,16.48
2023-05-17T00:57:25.930Z,16.52
2023-05-17T00:58:27.643Z,16.56
2023-05-17T00:59:29.680Z,16.54
2023-05-17T01:00:31.512Z,16.55
2023-05-17T01:01:35.458Z,16.57
2023-05-17T01:02:37.146Z,16.65
2023-05-17T01:03:38.998Z,16.60
2023-05-17T01:04:41.417Z,16.58
2023-05-17T01:05:43.242Z,16.63
2023-05-17T01:06:45.761Z,16.71
2023-05-17T01:07:47.387Z,16.74
2023-05-17T01:08:49.214Z,16.70
2023-05-17T01:09:51.109Z,16.72
2023-05-17T01:11:17.156Z,16.74
2023-05-17T01:12:36.419Z,16.72
2023-05-17T01:13:42.456Z,16.79
2023-05-17T01:15:07.192Z,16.77
2023-05-17T01:16:18.261Z,16.72
2023-05-17T01:17:54.365Z,16.51
2023-05-17T01:19:06.591Z,16.45
2023-05-17T01:20:20.545Z,16.42
2023-05-17T01:21:49.205Z,16.28
2023-05-17T01:23:21.075Z,16.18
2023-05-17T01:24:50.835Z,16.09
2023-05-17T01:26:10.843Z,16.00
2023-05-17T01:27:15.326Z,15.98
2023-05-17T01:28:18.164Z,15.99
2023-05-17T01:29:25.942Z,16.05
2023-05-17T01:30:29.336Z,16.05
2023-05-17T01:31:31.913Z,16.08
2023-05-17T01:32:33.809Z,16.09
2023-05-17T01:33:36.864Z,16.17
2023-05-17T01:34:38.635Z,16.14
2023-05-17T01:35:40.227Z,16.11
2023-05-17T01:36:43.389Z,16.05
2023-05-17T01:37:45.001Z,15.95
2023-05-17T01:38:46.635Z,15.92
2023-05-17T01:39:48.324Z,15.87
2023-05-17T01:41:09.721Z,15.87
2023-05-17T01:42:21.387Z,15.73
2023-05-17T01:43:30.880Z,15.76
2023-05-17T01:44:40.927Z,15.86
2023-05-17T01:45:54.065Z,15.91
2023-05-17T01:47:09.083Z,15.92
2023-05-17T01:48:32.643Z,15.92
2023-05-17T01:49:38.435Z,15.90
2023-05-17T01:50:40.997Z,15.92
2023-05-17T01:52:04.755Z,15.94
2023-05-17T01:53:10.969Z,15.90
2023-05-17T01:54:14.085Z,15.82
2023-05-17T01:55:21.397Z,15.77
2023-05-17T01:56:28.907Z,15.83
2023-05-17T01:57:35.504Z,15.90
2023-05-17T01:58:45.891Z,15.92
2023-05-17T01:59:49.941Z,16.07
2023-05-17T02:00:55.640Z,16.14
2023-05-17T02:02:06.209Z,16.11
2023-05-17T02:03:07.946Z,15.98
2023-05-17T02:04:10.531Z,15.92
2023-05-17T02:05:12.557Z,15.82
2023-05-17T02:06:14.164Z,15.70
2023-05-17T02:07:16.131Z,15.64
2023-05-17T02:08:18.040Z,15.68
2023-05-17T02:09:19.660Z,15.68
2023-05-17T02:10:21.365Z,15.75
2023-05-17T02:11:23.015Z,15.80
2023-05-17T02:12:25.493Z,15.77
2023-05-17T02:13:27.131Z,15.78
2023-05-17T02:14:28.715Z,15.77
2023-05-17T02:15:30.781Z,15.75
2023-05-17T02:16:32.565Z,15.76
2023-05-17T02:17:34.308Z,15.78
2023-05-17T02:18:37.900Z,15.82
2023-05-17T02:19:39.624Z,15.75
2023-05-17T02:20:41.452Z,15.57
2023-05-17T02:21:43.053Z,15.53
2023-05-17T02:22:44.617Z,15.50
2023-05-17T02:23:46.499Z,15.54
2023-05-17T02:24:49.026Z,15.47
2023-05-17T02:25:51.073Z,15.48
2023-05-17T02:26:52.684Z,15.45
2023-05-17T02:27:54.373Z,15.56
2023-05-17T02:28:56.025Z,15.64
2023-05-17T02:29:57.591Z,15.67
2023-05-17T02:30:59.189Z,15.50
2023-05-17T02:32:00.871Z,15.41
2023-05-17T02:33:02.557Z,15.29
2023-05-17T02:34:04.297Z,15.10
2023-05-17T02:35:06.161Z,15.07
2023-05-17T02:36:07.944Z,15.15
2023-05-17T02:37:09.494Z,15.16
2023-05-17T02:38:11.067Z,15.22
2023-05-17T02:39:12.826Z,15.31
2023-05-17T02:40:14.515Z,15.42
2023-05-17T02:41:16.170Z,15.47
2023-05-17T02:42:18.116Z,15.53
2023-05-17T02:43:19.670Z,15.61
2023-05-17T02:44:21.221Z,15.65
2023-05-17T02:45:22.817Z,15.62
2023-05-17T02:46:24.394Z,15.50
2023-05-17T02:47:26.106Z,15.47
2023-05-17T02:48:27.780Z,15.40
2023-05-17T02:49:29.376Z,15.35
2023-05-17T02:50:30.921Z,15.27
2023-05-17T02:51:32.566Z,15.26
2023-05-17T02:52:34.158Z,15.29
2023-05-17T02:53:35.736Z,15.32
2023-05-17T02:54:37.309Z,15.36
2023-05-17T02:55:38.923Z,15.38
2023-05-17T02:56:41.267Z,15.36
2023-05-17T02:57:42.859Z,15.24
2023-05-17T02:58:44.423Z,15.19
2023-05-17T02:59:46.182Z,15.20
2023-05-17T03:00:47.784Z,15.28
2023-05-17T03:01:50.385Z,15.24
2023-05-17T03:02:52.129Z,15.20
2023-05-17T03:03:54.795Z,15.25
2023-05-17T03:04:56.776Z,15.32
2023-05-17T03:06:02.442Z,15.43
2023-05-17T03:07:06.863Z,15.48
2023-05-17T03:08:08.824Z,15.53
2023-05-17T03:09:10.402Z,15.55
2023-05-17T03:10:12.082Z,15.59
2023-05-17T03:11:13.717Z,15.59
2023-05-17T03:12:15.376Z,15.45
2023-05-17T03:13:17.054Z,15.31
2023-05-17T03:14:18.658Z,15.22
2023-05-17T03:15:20.602Z,15.13
2023-05-17T03:16:22.193Z,15.05
2023-05-17T03:17:23.822Z,14.96
2023-05-17T03:18:25.514Z,14.96
2023-05-17T03:19:27.648Z,14.97
2023-05-17T03:20:29.356Z,15.06
2023-05-17T03:21:31.682Z,15.07
2023-05-17T03:22:33.268Z,15.07
2023-05-17T03:23:34.911Z,15.12
2023-05-17T03:24:36.534Z,15.20
2023-05-17T03:25:38.129Z,15.24
2023-05-17T03:26:39.811Z,15.26
2023-05-17T03:27:41.449Z,15.33
2023-05-17T03:28:43.048Z,15.40
2023-05-17T03:29:44.607Z,15.45
2023-05-17T03:30:46.291Z,15.39
2023-05-17T03:31:48.031Z,15.28
2023-05-17T03:32:51.259Z,15.14
2023-05-17T03:33:53.076Z,15.11
2023-05-17T03:34:54.737Z,15.12
2023-05-17T03:35:56.346Z,15.19
2023-05-17T03:36:57.942Z,15.28
2023-05-17T03:37:59.544Z,15.37
2023-05-17T03:39:01.131Z,15.49
2023-05-17T03:40:03.102Z,15.57
2023-05-17T03:41:07.862Z,15.64
2023-05-17T03:42:09.472Z,15.74
2023-05-17T03:43:11.070Z,15.83
2023-05-17T03:44:12.736Z,15.88
2023-05-17T03:45:15.510Z,15.90
2023-05-17T03:46:17.194Z,15.93
2023-05-17T03:47:18.793Z,15.99
2023-05-17T03:48:20.446Z,15.98
2023-05-17T03:49:22.091Z,15.98
2023-05-17T03:50:23.731Z,15.92
2023-05-17T03:51:25.605Z,15.96
2023-05-17T03:52:27.214Z,16.02
2023-05-17T03:53:28.862Z,16.11
2023-05-17T03:54:30.524Z,16.16
2023-05-17T03:55:32.087Z,16.20
2023-05-17T03:56:33.725Z,16.27
2023-05-17T03:57:35.322Z,16.29
2023-05-17T03:58:37.033Z,16.31
2023-05-17T03:59:38.659Z,16.33
2023-05-17T04:00:40.304Z,16.38
2023-05-17T04:01:43.155Z,16.46
2023-05-17T04:02:44.769Z,16.52
2023-05-17T04:03:47.218Z,16.57
2023-05-17T04:04:50.206Z,16.62
2023-05-17T04:05:51.896Z,16.67
2023-05-17T04:06:53.544Z,16.69
2023-05-17T04:07:55.093Z,16.65
2023-05-17T04:08:56.838Z,16.60
2023-05-17T04:10:03.070Z,16.65
2023-05-17T04:11:10.478Z,16.74
2023-05-17T04:12:13.507Z,16.83
2023-05-17T04:13:15.145Z,16.96
2023-05-17T04:14:20.768Z,16.98
2023-05-17T04:15:22.716Z,17.06
2023-05-17T04:16:24.317Z,17.09
2023-05-17T04:17:26.065Z,17.10
2023-05-17T04:18:27.846Z,17.18
2023-05-17T04:19:29.650Z,17.23
2023-05-17T04:20:31.424Z,17.30
2023-05-17T04:21:32.990Z,17.38
2023-05-17T04:22:34.569Z,17.35
2023-05-17T04:23:36.316Z,17.29
2023-05-17T04:24:37.923Z,17.34
2023-05-17T04:25:39.524Z,17.35
2023-05-17T04:26:41.079Z,17.37
2023-05-17T04:27:42.806Z,17.46
2023-05-17T04:28:44.383Z,17.53
2023-05-17T04:29:46.200Z,17.61
2023-05-17T04:30:47.926Z,17.69
2023-05-17T04:31:50.305Z,17.82
2023-05-17T04:32:51.911Z,17.85
2023-05-17T04:33:53.555Z,17.84
2023-05-17T04:34:56.326Z,17.81
2023-05-17T04:35:58.333Z,17.95
2023-05-17T04:37:00.026Z,18.03
2023-05-17T04:38:01.709Z,18.02
2023-05-17T04:39:03.639Z,18.07
2023-05-17T04:40:07.328Z,18.09
2023-05-17T04:41:09.600Z,18.16
2023-05-17T04:42:12.042Z,18.23
2023-05-17T04:43:13.591Z,18.29
2023-05-17T04:44:15.435Z,18.24
2023-05-17T04:45:17.806Z,18.34
2023-05-17T04:46:19.448Z,18.39
2023-05-17T04:47:21.087Z,18.47
2023-05-17T04:48:23.062Z,18.41
2023-05-17T04:49:25.288Z,18.38
2023-05-17T04:50:27.096Z,18.55
2023-05-17T04:51:30.737Z,18.63
2023-05-17T04:52:32.821Z,18.44
2023-05-17T04:53:34.432Z,18.41
2023-05-17T04:54:36.652Z,18.39
2023-05-17T04:55:38.352Z,18.52
2023-05-17T04:56:39.929Z,18.58
2023-05-17T04:57:41.481Z,18.64
2023-05-17T04:58:43.182Z,18.67
2023-05-17T04:59:45.069Z,18.62
2023-05-17T05:00:46.696Z,18.67
2023-05-17T05:01:48.291Z,18.83
2023-05-17T05:02:50.201Z,18.94
2023-05-17T05:03:51.971Z,19.09
2023-05-17T05:04:53.679Z,19.21
2023-05-17T05:05:55.350Z,19.31
2023-05-17T05:06:57.035Z,19.32
2023-05-17T05:07:58.678Z,19.36
2023-05-17T05:09:01.624Z,19.43
2023-05-17T05:10:03.389Z,19.48
2023-05-17T05:11:05.148Z,19.52
2023-05-17T05:12:07.199Z,19.61
2023-05-17T05:13:08.848Z,19.68
2023-05-17T05:14:10.509Z,19.73
2023-05-17T05:15:12.451Z,19.81
2023-05-17T05:16:14.088Z,19.87
2023-05-17T05:17:15.824Z,19.96
2023-05-17T05:18:17.597Z,20.07
2023-05-17T05:19:19.570Z,20.08
2023-05-17T05:20:21.368Z,20.16
2023-05-17T05:21:22.942Z,20.24
2023-05-17T05:22:24.997Z,20.26
2023-05-17T05:23:27.023Z,20.32
2023-05-17T05:24:28.700Z,20.45
2023-05-17T05:25:30.594Z,20.49
2023-05-17T05:26:32.957Z,20.55
2023-05-17T05:27:35.946Z,20.55
2023-05-17T05:28:37.666Z,20.55
2023-05-17T05:29:39.258Z,20.54
2023-05-17T05:30:41.042Z,20.57
2023-05-17T05:31:42.680Z,20.59
2023-05-17T05:32:44.377Z,20.64
2023-05-17T05:33:46.249Z,20.57
2023-05-17T05:34:49.176Z,20.59
2023-05-17T05:35:51.009Z,20.64
2023-05-17T05:36:52.977Z,20.57
2023-05-17T05:37:54.791Z,20.56
2023-05-17T05:38:56.412Z,20.69
2023-05-17T05:39:58.516Z,20.79
2023-05-17T05:41:00.184Z,20.90
2023-05-17T05:42:01.831Z,20.96
2023-05-17T05:43:03.420Z,20.95
2023-05-17T05:44:05.567Z,20.88
2023-05-17T05:45:08.413Z,20.95
2023-05-17T05:46:10.073Z,21.05
2023-05-17T05:47:11.776Z,21.01
2023-05-17T05:48:14.113Z,20.96
2023-05-17T05:49:15.949Z,21.02
2023-05-17T05:50:17.735Z,21.06
2023-05-17T05:51:20.699Z,20.82
2023-05-17T05:52:24.098Z,20.71
2023-05-17T05:53:25.710Z,20.80
2023-05-17T05:54:27.277Z,20.84
2023-05-17T05:55:28.833Z,20.88
2023-05-17T05:56:30.400Z,20.91
2023-05-17T05:57:32.056Z,20.96
2023-05-17T05:58:33.746Z,21.07
2023-05-17T05:59:35.416Z,21.10
2023-05-17T06:00:37.387Z,21.13
2023-05-17T06:01:39.026Z,21.12
2023-05-17T06:02:40.881Z,21.15
2023-05-17T06:03:42.520Z,21.17
2023-05-17T06:04:45.594Z,21.20
2023-05-17T06:05:47.733Z,21.25
2023-05-17T06:06:49.699Z,21.24
2023-05-17T06:07:51.568Z,21.24
2023-05-17T06:08:53.146Z,21.24
2023-05-17T06:09:54.750Z,21.25
2023-05-17T06:10:56.361Z,21.27
2023-05-17T06:14:42.678Z,21.14
2023-05-17T06:15:44.280Z,21.16
2023-05-17T06:16:46.080Z,21.06
2023-05-17T06:17:47.841Z,20.99
2023-05-17T06:18:51.276Z,20.93
2023-05-17T06:19:53.249Z,20.93
2023-05-17T06:20:54.949Z,21.03
2023-05-17T06:21:56.605Z,21.07
2023-05-17T06:22:59.164Z,21.13
2023-05-17T06:24:02.263Z,21.19
2023-05-17T06:25:06.231Z,21.31
2023-05-17T06:26:10.566Z,21.44
2023-05-17T06:27:12.162Z,21.49
2023-05-17T06:28:13.767Z,21.52
2023-05-17T06:29:15.392Z,21.65
2023-05-17T06:30:17.081Z,21.80
2023-05-17T06:31:21.003Z,21.88
2023-05-17T06:32:22.906Z,21.89
2023-05-17T06:33:24.677Z,21.96
2023-05-17T06:34:26.376Z,22.07
2023-05-17T06:35:28.157Z,22.07
2023-05-17T06:36:32.374Z,22.15
2023-05-17T06:37:34.487Z,22.15
2023-05-17T06:38:36.097Z,22.05
2023-05-17T06:39:37.699Z,21.88
2023-05-17T06:40:39.386Z,21.58
2023-05-17T06:41:41.027Z,21.40
2023-05-17T06:42:42.746Z,21.42
2023-05-17T06:43:45.909Z,21.38
2023-05-17T06:44:47.472Z,21.21
2023-05-17T06:45:49.171Z,21.30
2023-05-17T06:46:50.724Z,21.48
2023-05-17T06:47:52.487Z,21.52
2023-05-17T06:48:54.692Z,21.58
2023-05-17T06:49:56.410Z,21.58
2023-05-17T06:50:58.064Z,21.58
2023-05-17T06:52:03.508Z,21.53
2023-05-17T06:53:05.457Z,21.44
2023-05-17T06:54:07.012Z,21.46
2023-05-17T06:55:09.322Z,21.44
2023-05-17T06:56:11.072Z,21.35
2023-05-17T06:57:12.733Z,21.21
2023-05-17T06:58:14.437Z,21.23
2023-05-17T06:59:16.646Z,21.29
2023-05-17T07:00:18.624Z,21.28
2023-05-17T07:01:20.640Z,21.39
2023-05-17T07:02:22.383Z,21.46
2023-05-17T07:03:24.272Z,21.43
2023-05-17T07:04:27.343Z,21.53
2023-05-17T07:05:30.970Z,21.72
2023-05-17T07:06:32.844Z,21.91
2023-05-17T07:07:34.434Z,21.88
2023-05-17T07:08:36.127Z,21.77
2023-05-17T07:09:38.040Z,21.83
2023-05-17T07:10:39.644Z,22.00
2023-05-17T07:11:41.257Z,22.15
2023-05-17T07:12:42.849Z,22.31
2023-05-17T07:13:44.556Z,22.33
2023-05-17T07:14:46.808Z,22.47
2023-05-17T07:15:48.501Z,22.51
2023-05-17T07:16:50.184Z,22.50
2023-05-17T07:17:52.130Z,22.21
2023-05-17T07:18:53.755Z,22.08
2023-05-17T07:19:55.486Z,22.20
2023-05-17T07:20:58.299Z,22.27
2023-05-17T07:21:59.932Z,22.37
2023-05-17T07:23:01.498Z,22.40
2023-05-17T07:24:03.243Z,22.46
2023-05-17T07:25:05.660Z,22.43
2023-05-17T07:26:07.233Z,22.35
2023-05-17T07:27:08.824Z,22.14
2023-05-17T07:28:10.362Z,22.07
2023-05-17T07:29:12.784Z,22.04
2023-05-17T07:31:16.248Z,21.96
2023-05-17T07:32:18.104Z,21.96
2023-05-17T07:33:21.579Z,22.03
2023-05-17T07:34:23.193Z,22.16
2023-05-17T07:35:24.920Z,22.30
2023-05-17T07:36:30.638Z,22.32
2023-05-17T07:37:32.289Z,22.14
2023-05-17T07:38:40.025Z,22.11
2023-05-17T07:39:41.577Z,22.17
2023-05-17T07:40:46.108Z,22.26
2023-05-17T07:41:47.738Z,22.35
2023-05-17T07:42:49.404Z,22.52
2023-05-17T07:43:51.101Z,22.66
2023-05-17T07:44:54.747Z,22.75
2023-05-17T07:45:56.370Z,22.71
2023-05-17T07:46:58.074Z,22.46
2023-05-17T07:47:59.765Z,22.50
2023-05-17T07:49:01.622Z,22.71
2023-05-17T07:50:04.521Z,22.76
2023-05-17T07:51:06.123Z,22.86
2023-05-17T07:52:08.337Z,22.86
2023-05-17T07:53:10.535Z,22.86
2023-05-17T07:54:23.609Z,22.85
2023-05-17T07:55:25.466Z,22.87
2023-05-17T07:56:27.034Z,22.96
2023-05-17T07:57:28.680Z,23.03
2023-05-17T07:58:30.868Z,23.12
2023-05-17T07:59:32.440Z,23.28
2023-05-17T08:00:34.177Z,23.36
2023-05-17T08:01:35.884Z,23.39
2023-05-17T08:02:37.518Z,23.30
2023-05-17T08:03:39.605Z,23.24
2023-05-17T08:04:42.031Z,23.27
2023-05-17T08:05:43.744Z,23.29
2023-05-17T08:06:48.645Z,23.21
2023-05-17T08:07:50.318Z,22.95
2023-05-17T08:08:51.916Z,22.61
2023-05-17T08:09:53.503Z,22.54
2023-05-17T08:10:55.191Z,22.60
2023-05-17T08:11:57.488Z,22.59
2023-05-17T08:12:59.038Z,22.61
2023-05-17T08:14:01.526Z,22.71
2023-05-17T08:15:03.359Z,22.79
2023-05-17T08:16:13.411Z,22.83
2023-05-17T08:17:15.487Z,22.81
2023-05-17T08:18:17.250Z,22.94
2023-05-17T08:19:19.489Z,22.97
2023-05-17T08:20:21.275Z,22.97
2023-05-17T08:21:23.116Z,22.99
2023-05-17T08:22:27.035Z,23.07
2023-05-17T08:23:28.653Z,23.11
2023-05-17T08:24:30.260Z,23.07
2023-05-17T08:25:32.083Z,23.07
2023-05-17T08:26:34.086Z,23.04
2023-05-17T08:27:35.849Z,23.01
2023-05-17T08:28:37.414Z,23.03
2023-05-17T08:29:39.747Z,22.89
2023-05-17T08:30:41.809Z,22.79
2023-05-17T08:31:43.481Z,22.75
2023-05-17T08:32:45.495Z,22.79
2023-05-17T08:33:47.203Z,22.83
2023-05-17T08:34:48.834Z,22.89
2023-05-17T08:35:51.557Z,22.95
2023-05-17T08:36:53.714Z,23.01
2023-05-17T08:37:55.350Z,23.14
2023-05-17T08:38:56.964Z,23.15
2023-05-17T08:39:58.720Z,23.12
2023-05-17T08:41:00.467Z,23.13
2023-05-17T08:42:02.668Z,23.12
2023-05-17T08:43:04.407Z,23.16
2023-05-17T08:44:06.553Z,23.19
2023-05-17T08:45:10.520Z,23.21
2023-05-17T08:46:12.581Z,23.16
2023-05-17T08:47:26.284Z,23.16
2023-05-17T08:48:31.429Z,23.13
2023-05-17T08:49:34.550Z,23.22
2023-05-17T08:50:38.249Z,23.27
2023-05-17T08:51:42.205Z,23.41
2023-05-17T08:52:46.369Z,23.49
2023-05-17T08:53:48.354Z,23.56
2023-05-17T08:54:50.000Z,23.60
2023-05-17T08:55:57.743Z,23.68
2023-05-17T08:57:00.744Z,23.76
2023-05-17T08:58:04.876Z,23.83
2023-05-17T08:59:06.973Z,23.89
2023-05-17T09:00:14.262Z,23.94
2023-05-17T09:01:16.853Z,23.75
2023-05-17T09:02:19.280Z,23.60
2023-05-17T09:03:22.604Z,23.54
2023-05-17T09:04:25.246Z,23.62
2023-05-17T09:05:28.301Z,23.80
2023-05-17T09:06:30.410Z,23.82
2023-05-17T09:07:32.296Z,23.87
2023-05-17T09:08:34.155Z,23.89
2023-05-17T09:09:35.825Z,23.85
2023-05-17T09:10:37.564Z,23.80
2023-05-17T09:11:39.295Z,23.87
2023-05-17T09:12:41.101Z,23.94
2023-05-17T09:13:42.698Z,23.97
2023-05-17T09:14:44.287Z,24.05
2023-05-17T09:15:48.187Z,24.13
2023-05-17T09:16:58.136Z,24.16
2023-05-17T09:18:00.147Z,24.27
2023-05-17T09:19:03.904Z,24.31
2023-05-17T09:20:07.716Z,24.27
2023-05-17T09:21:13.303Z,24.31
2023-05-17T09:22:18.634Z,24.22
2023-05-17T09:23:21.514Z,24.14
2023-05-17T09:24:30.480Z,24.12
2023-05-17T09:25:32.564Z,24.13
2023-05-17T09:26:40.517Z,24.15
2023-05-17T09:27:42.406Z,24.05
2023-05-17T09:28:44.594Z,23.90
2023-05-17T09:29:46.504Z,23.79
2023-05-17T09:30:49.465Z,23.85
2023-05-17T09:31:51.101Z,23.80
2023-05-17T09:32:53.952Z,23.66
2023-05-17T09:33:59.329Z,23.64
2023-05-17T09:35:02.795Z,23.82
2023-05-17T09:36:15.098Z,24.01
2023-05-17T09:37:18.848Z,24.09
2023-05-17T09:38:26.577Z,24.12
2023-05-17T09:39:28.178Z,24.25
2023-05-17T09:40:29.902Z,24.32
2023-05-17T09:41:33.343Z,24.24
2023-05-17T09:42:37.293Z,24.21
2023-05-17T09:43:39.179Z,24.21
2023-05-17T09:44:57.485Z,24.25
2023-05-17T09:45:59.530Z,24.30
2023-05-17T09:47:01.150Z,24.33
2023-05-17T09:48:16.978Z,24.39
2023-05-17T09:49:18.736Z,24.44
2023-05-17T09:50:24.583Z,24.27
2023-05-17T09:51:43.662Z,24.12
2023-05-17T09:52:45.474Z,24.24
2023-05-17T09:53:54.144Z,24.37
2023-05-17T09:54:57.637Z,24.25
2023-05-17T09:56:05.613Z,24.22
2023-05-17T09:57:09.700Z,24.25
2023-05-17T09:58:11.689Z,24.33
2023-05-17T09:59:15.671Z,24.36
2023-05-17T10:00:19.737Z,24.33
2023-05-17T10:01:22.240Z,24.27
2023-05-17T10:02:35.518Z,23.88
2023-05-17T10:03:38.400Z,23.81
2023-05-17T10:04:40.970Z,23.88
2023-05-17T10:05:44.317Z,23.98
2023-05-17T10:06:50.771Z,24.05
2023-05-17T10:07:56.455Z,23.92
2023-05-17T10:08:59.045Z,23.87
2023-05-17T10:10:01.153Z,23.85
2023-05-17T10:11:05.473Z,23.88
2023-05-17T10:12:10.337Z,24.05
2023-05-17T10:13:14.006Z,24.16
2023-05-17T10:14:24.085Z,24.26
2023-05-17T10:15:26.936Z,24.37
2023-05-17T10:16:29.709Z,24.41
2023-05-17T10:17:32.399Z,24.48
2023-05-17T10:18:34.713Z,24.34
2023-05-17T10:19:37.755Z,24.27
2023-05-17T10:20:40.454Z,24.39
2023-05-17T10:21:43.265Z,24.47
2023-05-17T10:22:45.576Z,24.34
2023-05-17T10:23:47.946Z,24.10
2023-05-17T10:24:54.172Z,23.75
2023-05-17T10:25:56.294Z,23.87
2023-05-17T10:26:58.161Z,23.96
2023-05-17T10:28:01.163Z,24.06
2023-05-17T10:29:04.149Z,24.14
2023-05-17T10:30:07.250Z,24.04
2023-05-17T10:31:08.929Z,24.04
2023-05-17T10:32:14.367Z,23.98
2023-05-17T10:33:17.579Z,24.06
2023-05-17T10:34:20.780Z,24.10
2023-05-17T10:35:24.312Z,24.19
2023-05-17T10:36:26.697Z,24.34
2023-05-17T10:37:30.052Z,24.42
2023-05-17T10:38:41.611Z,24.25
2023-05-17T10:39:46.849Z,24.19
2023-05-17T10:40:50.197Z,24.27
2023-05-17T10:42:03.258Z,24.35
2023-05-17T10:43:16.360Z,24.48
2023-05-17T10:44:19.282Z,24.40
2023-05-17T10:45:22.925Z,23.94
2023-05-17T10:46:24.882Z,23.56
2023-05-17T10:47:33.602Z,23.45
2023-05-17T10:48:37.007Z,23.44
2023-05-17T10:49:45.094Z,23.52
2023-05-17T10:50:54.478Z,23.31
2023-05-17T10:52:29.305Z,23.19
2023-05-17T10:53:30.931Z,23.19
2023-05-17T10:54:36.846Z,23.04
2023-05-17T10:55:42.156Z,22.92
2023-05-17T10:56:53.415Z,22.99
2023-05-17T10:58:11.507Z,23.01
2023-05-17T10:59:28.035Z,23.10
2023-05-17T11:00:38.456Z,23.22
2023-05-17T11:01:58.885Z,23.29
2023-05-17T11:03:34.831Z,23.18
2023-05-17T11:04:39.350Z,23.15
2023-05-17T11:06:13.238Z,23.21
2023-05-17T11:07:24.974Z,23.29
2023-05-17T11:08:26.636Z,23.39
2023-05-17T11:09:32.413Z,23.25
2023-05-17T11:10:36.166Z,23.08
2023-05-17T11:11:37.919Z,23.01
2023-05-17T11:12:53.891Z,23.13
2023-05-17T11:13:57.022Z,23.10
2023-05-17T11:14:58.869Z,23.22
2023-05-17T11:16:05.219Z,22.99
2023-05-17T11:17:13.994Z,22.92
2023-05-17T11:18:29.185Z,22.96
2023-05-17T11:19:32.482Z,22.92
2023-05-17T11:20:35.605Z,22.94
2023-05-17T11:21:48.062Z,23.09
2023-05-17T11:22:55.601Z,23.24
2023-05-17T11:24:02.126Z,23.39
2023-05-17T11:25:08.398Z,23.53
2023-05-17T11:26:33.493Z,23.73
2023-05-17T11:27:43.245Z,23.79
2023-05-17T11:28:44.972Z,23.94
2023-05-17T11:29:49.641Z,24.12
2023-05-17T11:31:00.459Z,24.15
2023-05-17T11:32:07.331Z,24.20
2023-05-17T11:33:20.478Z,24.29
2023-05-17T11:34:27.543Z,24.33
2023-05-17T11:35:33.002Z,24.35
2023-05-17T11:36:57.818Z,24.32
2023-05-17T11:38:17.826Z,24.35
2023-05-17T11:39:22.299Z,24.34
2023-05-17T11:40:28.579Z,24.39
2023-05-17T11:41:30.891Z,24.37
2023-05-17T11:42:33.586Z,24.43
2023-05-17T11:43:35.465Z,24.39
2023-05-17T11:44:37.790Z,24.47
2023-05-17T11:45:46.113Z,24.40
2023-05-17T11:46:47.862Z,24.28
2023-05-17T11:47:49.723Z,24.19
2023-05-17T11:48:53.186Z,24.06
2023-05-17T11:49:56.720Z,23.94
2023-05-17T11:51:01.406Z,23.82
2023-05-17T11:52:07.711Z,23.76
2023-05-17T11:53:10.253Z,23.66
2023-05-17T11:54:14.343Z,23.54
2023-05-17T11:55:16.413Z,23.37
2023-05-17T11:56:20.630Z,23.23
2023-05-17T11:57:30.936Z,23.10
2023-05-17T11:58:33.303Z,23.06
2023-05-17T11:59:40.101Z,23.04
2023-05-17T12:00:42.917Z,23.08
2023-05-17T12:01:50.657Z,23.04
2023-05-17T12:02:52.355Z,22.94
2023-05-17T12:04:00.710Z,22.78
2023-05-17T12:05:03.065Z,22.59
2023-05-17T12:06:06.659Z,22.56
2023-05-17T12:07:11.795Z,22.46
2023-05-17T12:08:16.110Z,22.41
2023-05-17T12:09:18.029Z,22.41
2023-05-17T12:10:19.661Z,22.41
2023-05-17T12:11:22.119Z,22.38
2023-05-17T12:12:23.875Z,22.36
2023-05-17T12:13:29.559Z,22.37
2023-05-17T12:14:31.263Z,22.31
2023-05-17T12:15:33.099Z,22.32
2023-05-17T12:16:37.307Z,22.34
2023-05-17T12:17:45.417Z,22.30
2023-05-17T12:18:51.937Z,22.21
2023-05-17T12:19:54.624Z,22.22
2023-05-17T12:20:58.132Z,22.19
2023-05-17T12:22:13.708Z,22.09
2023-05-17T12:23:15.317Z,22.02
2023-05-17T12:24:17.503Z,22.00
2023-05-17T12:25:25.625Z,22.00
2023-05-17T12:26:27.496Z,22.09
2023-05-17T12:27:29.283Z,22.13
2023-05-17T12:28:31.026Z,22.07
2023-05-17T12:29:32.815Z,22.08
2023-05-17T12:30:34.439Z,22.07
2023-05-17T12:31:40.857Z,22.08
2023-05-17T12:32:42.800Z,22.09
2023-05-17T12:33:45.171Z,22.13
2023-05-17T12:34:47.974Z,22.21
2023-05-17T12:35:49.737Z,22.19
2023-05-17T12:36:53.381Z,21.99
2023-05-17T12:37:55.594Z,21.76
2023-05-17T12:38:57.660Z,21.53
2023-05-17T12:40:02.806Z,21.33
2023-05-17T12:41:05.815Z,21.19
2023-05-17T12:42:09.000Z,20.98
2023-05-17T12:43:11.317Z,20.61
2023-05-17T12:44:16.492Z,20.38
2023-05-17T12:45:18.558Z,20.23
2023-05-17T12:46:23.208Z,19.91
2023-05-17T12:47:30.516Z,19.61
2023-05-17T12:48:36.766Z,19.36
2023-05-17T12:49:39.835Z,19.18
2023-05-17T12:50:46.373Z,19.05
2023-05-17T12:51:48.368Z,18.93
2023-05-17T12:52:49.948Z,18.89
2023-05-17T12:53:56.608Z,18.85
2023-05-17T12:54:59.456Z,18.86
2023-05-17T12:56:01.104Z,18.71
2023-05-17T12:57:18.479Z,18.72
2023-05-17T12:58:20.099Z,18.72
2023-05-17T12:59:28.817Z,18.65
2023-05-17T13:00:31.327Z,18.38
2023-05-17T13:01:37.704Z,18.31
2023-05-17T13:02:42.490Z,18.35
2023-05-17T13:03:51.702Z,18.26
2023-05-17T13:04:53.489Z,18.22
2023-05-17T13:05:59.803Z,18.23
2023-05-17T13:07:03.393Z,18.32
2023-05-17T13:08:22.669Z,18.37
2023-05-17T13:13:37.134Z,18.16
2023-05-17T13:14:45.701Z,17.98
2023-05-17T13:15:48.275Z,17.85
2023-05-17T13:16:51.693Z,17.25
2023-05-17T13:17:53.494Z,16.97
2023-05-17T13:18:55.949Z,16.84
2023-05-17T13:19:58.475Z,16.70
2023-05-17T13:21:00.279Z,16.63
2023-05-17T13:22:02.973Z,16.53
2023-05-17T13:23:06.975Z,16.45
2023-05-17T13:24:11.508Z,16.33
2023-05-17T13:25:15.068Z,16.26
2023-05-17T13:26:18.488Z,16.16
2023-05-17T13:27:20.353Z,16.11
2023-05-17T13:28:21.926Z,16.07
2023-05-17T13:29:38.039Z,16.02
2023-05-17T13:30:40.963Z,15.93
2023-05-17T13:31:43.080Z,15.85
2023-05-17T13:32:45.192Z,15.81
2023-05-17T13:33:50.064Z,15.79
2023-05-17T13:34:51.963Z,15.66
2023-05-17T13:35:53.618Z,15.65
2023-05-17T13:36:57.261Z,15.66
2023-05-17T13:37:58.901Z,15.64
2023-05-17T13:39:02.190Z,15.66
2023-05-17T13:40:04.938Z,15.68
2023-05-17T13:41:09.432Z,15.69
2023-05-17T13:42:12.621Z,15.68
2023-05-17T13:43:15.099Z,15.63
2023-05-17T13:44:16.773Z,15.71
2023-05-17T13:45:18.420Z,15.78
2023-05-17T13:46:20.084Z,15.77
2023-05-17T13:47:22.001Z,15.67
2023-05-17T13:48:24.126Z,15.60